<?xml version="1.0" encoding="UTF-8" standalone="no" ?>
<gpx xmlns="http://www.topografix.com/GPX/1/1" xmlns:xsi="http://www.w3.org/2001/XMLSchema-instance" xsi:schemaLocation="http://www.topografix.com/GPX/1/1 http://www.topografix.com/GPX/1/1/gpx.xsd" version="1.1" creator="VisuGPX - https://www.visugpx.com">
  <metadata>
    <name>Edirne-Zagreb</name>
  </metadata>
  <trk>
    <name><![CDATA[Tour d'Europe: étape 674]]></name>
    <extensions>
      <line xmlns="http://www.topografix.com/GPX/gpx_style/0/2">
        <color>880088</color>
        <width>4</width>
      </line>
    </extensions>
    <trkseg>
      <trkpt lat="41.11687" lon="20.08468">
        <ele>100.256413</ele>
        <time>2022-05-03T07:16:55.798Z</time>
      </trkpt>
      <trkpt lat="41.11779" lon="20.08605">
        <ele>145.41062</ele>
        <time>2022-05-03T07:35:32.603Z</time>
      </trkpt>
      <trkpt lat="41.11648" lon="20.08674">
        <ele>184.675137</ele>
        <time>2022-05-03T07:36:47.588Z</time>
      </trkpt>
      <trkpt lat="41.11452" lon="20.08676">
        <ele>179.917246</ele>
        <time>2022-05-03T07:37:35.584Z</time>
      </trkpt>
      <trkpt lat="41.11346" lon="20.08433">
        <ele>180.87337</ele>
        <time>2022-05-03T07:38:31.591Z</time>
      </trkpt>
      <trkpt lat="41.11281" lon="20.08167">
        <ele>173.75903</ele>
        <time>2022-05-03T07:39:29.586Z</time>
      </trkpt>
      <trkpt lat="41.11211" lon="20.07907">
        <ele>183.1456</ele>
        <time>2022-05-03T07:40:31.590Z</time>
      </trkpt>
      <trkpt lat="41.11216" lon="20.07635">
        <ele>194.006898</ele>
        <time>2022-05-03T07:41:30.592Z</time>
      </trkpt>
      <trkpt lat="41.11279" lon="20.07383">
        <ele>188.036468</ele>
        <time>2022-05-03T07:42:19.588Z</time>
      </trkpt>
      <trkpt lat="41.11355" lon="20.07117">
        <ele>184.116663</ele>
        <time>2022-05-03T07:43:17.590Z</time>
      </trkpt>
      <trkpt lat="41.1138" lon="20.06824">
        <ele>180.031364</ele>
        <time>2022-05-03T07:43:59.581Z</time>
      </trkpt>
      <trkpt lat="41.11437" lon="20.06542">
        <ele>175.029454</ele>
        <time>2022-05-03T07:44:44.579Z</time>
      </trkpt>
      <trkpt lat="41.11366" lon="20.06284">
        <ele>166.506064</ele>
        <time>2022-05-03T07:45:22.584Z</time>
      </trkpt>
      <trkpt lat="41.11246" lon="20.06037">
        <ele>163.8446</ele>
        <time>2022-05-03T07:46:13.586Z</time>
      </trkpt>
      <trkpt lat="41.11152" lon="20.05762">
        <ele>161.920071</ele>
        <time>2022-05-03T07:46:53.587Z</time>
      </trkpt>
      <trkpt lat="41.11171" lon="20.05455">
        <ele>163.686829</ele>
        <time>2022-05-03T07:47:41.585Z</time>
      </trkpt>
      <trkpt lat="41.11128" lon="20.05195">
        <ele>165.115253</ele>
        <time>2022-05-03T07:48:37.604Z</time>
      </trkpt>
      <trkpt lat="41.10975" lon="20.05059">
        <ele>155.117318</ele>
        <time>2022-05-03T07:49:17.614Z</time>
      </trkpt>
      <trkpt lat="41.10766" lon="20.04964">
        <ele>148.704542</ele>
        <time>2022-05-03T07:50:08.608Z</time>
      </trkpt>
      <trkpt lat="41.10613" lon="20.04782">
        <ele>150.205995</ele>
        <time>2022-05-03T07:50:49.632Z</time>
      </trkpt>
      <trkpt lat="41.10471" lon="20.04571">
        <ele>149.194234</ele>
        <time>2022-05-03T07:51:36.622Z</time>
      </trkpt>
      <trkpt lat="41.10347" lon="20.04324">
        <ele>144.719513</ele>
        <time>2022-05-03T07:52:24.614Z</time>
      </trkpt>
      <trkpt lat="41.10261" lon="20.04073">
        <ele>143.739086</ele>
        <time>2022-05-03T07:53:11.605Z</time>
      </trkpt>
      <trkpt lat="41.10177" lon="20.03809">
        <ele>144.03569</ele>
        <time>2022-05-03T07:53:57.641Z</time>
      </trkpt>
      <trkpt lat="41.10101" lon="20.03551">
        <ele>143.638171</ele>
        <time>2022-05-03T07:54:42.606Z</time>
      </trkpt>
      <trkpt lat="41.10059" lon="20.0329">
        <ele>140.050436</ele>
        <time>2022-05-03T07:55:24.608Z</time>
      </trkpt>
      <trkpt lat="41.10053" lon="20.02991">
        <ele>143.756144</ele>
        <time>2022-05-03T07:56:23.578Z</time>
      </trkpt>
      <trkpt lat="41.10144" lon="20.02787">
        <ele>140.850863</ele>
        <time>2022-05-03T07:57:23.655Z</time>
      </trkpt>
      <trkpt lat="41.10052" lon="20.02506">
        <ele>138.642152</ele>
        <time>2022-05-03T07:58:23.612Z</time>
      </trkpt>
      <trkpt lat="41.09929" lon="20.02263">
        <ele>133.856158</ele>
        <time>2022-05-03T07:59:15.612Z</time>
      </trkpt>
      <trkpt lat="41.09772" lon="20.02065">
        <ele>131.258642</ele>
        <time>2022-05-03T08:00:04.606Z</time>
      </trkpt>
      <trkpt lat="41.09582" lon="20.01855">
        <ele>129.968589</ele>
        <time>2022-05-03T08:01:04.602Z</time>
      </trkpt>
      <trkpt lat="41.09429" lon="20.01667">
        <ele>138.797807</ele>
        <time>2022-05-03T08:02:18.587Z</time>
      </trkpt>
      <trkpt lat="41.09315" lon="20.01451">
        <ele>144.723914</ele>
        <time>2022-05-03T08:03:21.650Z</time>
      </trkpt>
      <trkpt lat="41.09184" lon="20.01204">
        <ele>139.588557</ele>
        <time>2022-05-03T08:04:06.578Z</time>
      </trkpt>
      <trkpt lat="41.09138" lon="20.00935">
        <ele>144.622673</ele>
        <time>2022-05-03T08:05:27.602Z</time>
      </trkpt>
      <trkpt lat="41.09158" lon="20.00676">
        <ele>157.506413</ele>
        <time>2022-05-03T08:07:11.607Z</time>
      </trkpt>
      <trkpt lat="41.09158" lon="20.00421">
        <ele>165.457183</ele>
        <time>2022-05-03T08:08:55.619Z</time>
      </trkpt>
      <trkpt lat="41.09014" lon="20.00209">
        <ele>162.09306</ele>
        <time>2022-05-03T08:09:56.622Z</time>
      </trkpt>
      <trkpt lat="41.08841" lon="20.00062">
        <ele>151.399271</ele>
        <time>2022-05-03T08:10:36.651Z</time>
      </trkpt>
      <trkpt lat="41.08679" lon="19.99879">
        <ele>147.840864</ele>
        <time>2022-05-03T08:11:17.612Z</time>
      </trkpt>
      <trkpt lat="41.0851" lon="19.99719">
        <ele>151.552703</ele>
        <time>2022-05-03T08:12:04.622Z</time>
      </trkpt>
      <trkpt lat="41.08402" lon="19.9946">
        <ele>159.710512</ele>
        <time>2022-05-03T08:13:04.616Z</time>
      </trkpt>
      <trkpt lat="41.08238" lon="19.99267">
        <ele>154.783636</ele>
        <time>2022-05-03T08:13:56.615Z</time>
      </trkpt>
      <trkpt lat="41.08034" lon="19.98998">
        <ele>147.646796</ele>
        <time>2022-05-03T08:14:36.619Z</time>
      </trkpt>
      <trkpt lat="41.07792" lon="19.98815">
        <ele>139.56223</ele>
        <time>2022-05-03T08:15:16.667Z</time>
      </trkpt>
      <trkpt lat="41.07586" lon="19.98601">
        <ele>134.18116</ele>
        <time>2022-05-03T08:15:56.612Z</time>
      </trkpt>
      <trkpt lat="41.07383" lon="19.98604">
        <ele>133.5393</ele>
        <time>2022-05-03T08:16:38.617Z</time>
      </trkpt>
      <trkpt lat="41.07258" lon="19.98396">
        <ele>133.488125</ele>
        <time>2022-05-03T08:17:21.596Z</time>
      </trkpt>
      <trkpt lat="41.07094" lon="19.98236">
        <ele>127.608121</ele>
        <time>2022-05-03T08:18:06.616Z</time>
      </trkpt>
      <trkpt lat="41.06925" lon="19.98039">
        <ele>132.322438</ele>
        <time>2022-05-03T08:19:02.612Z</time>
      </trkpt>
      <trkpt lat="41.06718" lon="19.97877">
        <ele>127.236982</ele>
        <time>2022-05-03T08:19:43.621Z</time>
      </trkpt>
      <trkpt lat="41.06549" lon="19.97703">
        <ele>124.739087</ele>
        <time>2022-05-03T08:20:29.616Z</time>
      </trkpt>
      <trkpt lat="41.06312" lon="19.97659">
        <ele>118.490908</ele>
        <time>2022-05-03T08:21:09.623Z</time>
      </trkpt>
      <trkpt lat="41.06114" lon="19.9756">
        <ele>115.017019</ele>
        <time>2022-05-03T08:21:53.595Z</time>
      </trkpt>
      <trkpt lat="41.05903" lon="19.975">
        <ele>114.632977</ele>
        <time>2022-05-03T08:22:35.638Z</time>
      </trkpt>
      <trkpt lat="41.05681" lon="19.97409">
        <ele>109.54529</ele>
        <time>2022-05-03T08:23:15.622Z</time>
      </trkpt>
      <trkpt lat="41.05511" lon="19.97278">
        <ele>109.02709</ele>
        <time>2022-05-03T08:23:56.610Z</time>
      </trkpt>
      <trkpt lat="41.05328" lon="19.97135">
        <ele>111.313203</ele>
        <time>2022-05-03T08:24:42.627Z</time>
      </trkpt>
      <trkpt lat="41.05164" lon="19.96984">
        <ele>112.927504</ele>
        <time>2022-05-03T08:25:24.643Z</time>
      </trkpt>
      <trkpt lat="41.05087" lon="19.96696">
        <ele>119.340643</ele>
        <time>2022-05-03T08:26:24.626Z</time>
      </trkpt>
      <trkpt lat="41.05063" lon="19.96407">
        <ele>122.885174</ele>
        <time>2022-05-03T08:27:19.624Z</time>
      </trkpt>
      <trkpt lat="41.05059" lon="19.96152">
        <ele>124.171082</ele>
        <time>2022-05-03T08:28:00.618Z</time>
      </trkpt>
      <trkpt lat="41.05104" lon="19.95864">
        <ele>120.879216</ele>
        <time>2022-05-03T08:28:52.602Z</time>
      </trkpt>
      <trkpt lat="41.05239" lon="19.95667">
        <ele>116.759665</ele>
        <time>2022-05-03T08:29:32.651Z</time>
      </trkpt>
      <trkpt lat="41.05388" lon="19.95483">
        <ele>116.332156</ele>
        <time>2022-05-03T08:30:12.618Z</time>
      </trkpt>
      <trkpt lat="41.05543" lon="19.95325">
        <ele>115.482346</ele>
        <time>2022-05-03T08:30:53.625Z</time>
      </trkpt>
      <trkpt lat="41.0564" lon="19.95103">
        <ele>117.473863</ele>
        <time>2022-05-03T08:31:34.622Z</time>
      </trkpt>
      <trkpt lat="41.05667" lon="19.94847">
        <ele>120.195779</ele>
        <time>2022-05-03T08:32:18.618Z</time>
      </trkpt>
      <trkpt lat="41.0558" lon="19.94597">
        <ele>122.383761</ele>
        <time>2022-05-03T08:33:15.626Z</time>
      </trkpt>
      <trkpt lat="41.05462" lon="19.94367">
        <ele>122.041836</ele>
        <time>2022-05-03T08:34:26.626Z</time>
      </trkpt>
      <trkpt lat="41.05397" lon="19.94047">
        <ele>115.113562</ele>
        <time>2022-05-03T08:35:07.612Z</time>
      </trkpt>
      <trkpt lat="41.05491" lon="19.9375">
        <ele>113.141342</ele>
        <time>2022-05-03T08:35:38.604Z</time>
      </trkpt>
      <trkpt lat="41.05622" lon="19.93528">
        <ele>116.677344</ele>
        <time>2022-05-03T08:36:23.636Z</time>
      </trkpt>
      <trkpt lat="41.05736" lon="19.93288">
        <ele>113.182121</ele>
        <time>2022-05-03T08:37:05.619Z</time>
      </trkpt>
      <trkpt lat="41.05865" lon="19.93104">
        <ele>110.045477</ele>
        <time>2022-05-03T08:37:43.624Z</time>
      </trkpt>
      <trkpt lat="41.06023" lon="19.92948">
        <ele>110.640667</ele>
        <time>2022-05-03T08:38:24.667Z</time>
      </trkpt>
      <trkpt lat="41.06199" lon="19.92829">
        <ele>111.664917</ele>
        <time>2022-05-03T08:39:06.595Z</time>
      </trkpt>
      <trkpt lat="41.06413" lon="19.92683">
        <ele>109.317353</ele>
        <time>2022-05-03T08:39:46.607Z</time>
      </trkpt>
      <trkpt lat="41.06599" lon="19.92532">
        <ele>109.227481</ele>
        <time>2022-05-03T08:40:26.623Z</time>
      </trkpt>
      <trkpt lat="41.06774" lon="19.92362">
        <ele>111.2013</ele>
        <time>2022-05-03T08:41:06.623Z</time>
      </trkpt>
      <trkpt lat="41.06942" lon="19.9214">
        <ele>108.979059</ele>
        <time>2022-05-03T08:41:46.618Z</time>
      </trkpt>
      <trkpt lat="41.07134" lon="19.9196">
        <ele>112.199948</ele>
        <time>2022-05-03T08:42:26.622Z</time>
      </trkpt>
      <trkpt lat="41.07197" lon="19.91681">
        <ele>115.451959</ele>
        <time>2022-05-03T08:43:06.624Z</time>
      </trkpt>
      <trkpt lat="41.07154" lon="19.91413">
        <ele>118.652243</ele>
        <time>2022-05-03T08:43:47.609Z</time>
      </trkpt>
      <trkpt lat="41.07175" lon="19.91115">
        <ele>115.248878</ele>
        <time>2022-05-03T08:44:39.641Z</time>
      </trkpt>
      <trkpt lat="41.07227" lon="19.90862">
        <ele>106.342995</ele>
        <time>2022-05-03T08:45:20.631Z</time>
      </trkpt>
      <trkpt lat="41.07195" lon="19.90572">
        <ele>107.449232</ele>
        <time>2022-05-03T08:46:17.603Z</time>
      </trkpt>
      <trkpt lat="41.07203" lon="19.90291">
        <ele>107.201056</ele>
        <time>2022-05-03T08:47:05.615Z</time>
      </trkpt>
      <trkpt lat="41.07229" lon="19.90001">
        <ele>107.097486</ele>
        <time>2022-05-03T08:47:58.611Z</time>
      </trkpt>
      <trkpt lat="41.07167" lon="19.89735">
        <ele>106.052236</ele>
        <time>2022-05-03T08:48:52.617Z</time>
      </trkpt>
      <trkpt lat="41.07069" lon="19.89493">
        <ele>104.034493</ele>
        <time>2022-05-03T08:49:32.616Z</time>
      </trkpt>
      <trkpt lat="41.06969" lon="19.89282">
        <ele>103.235618</ele>
        <time>2022-05-03T08:50:12.611Z</time>
      </trkpt>
      <trkpt lat="41.06835" lon="19.89097">
        <ele>101.92064</ele>
        <time>2022-05-03T08:50:54.604Z</time>
      </trkpt>
      <trkpt lat="41.06675" lon="19.88931">
        <ele>104.584637</ele>
        <time>2022-05-03T08:51:49.616Z</time>
      </trkpt>
      <trkpt lat="41.06572" lon="19.88682">
        <ele>108.426264</ele>
        <time>2022-05-03T08:52:46.608Z</time>
      </trkpt>
      <trkpt lat="41.06498" lon="19.88446">
        <ele>108.611122</ele>
        <time>2022-05-03T08:53:24.593Z</time>
      </trkpt>
      <trkpt lat="41.06415" lon="19.88191">
        <ele>105.91067</ele>
        <time>2022-05-03T08:54:04.608Z</time>
      </trkpt>
      <trkpt lat="41.0629" lon="19.87962">
        <ele>101.177537</ele>
        <time>2022-05-03T08:54:44.614Z</time>
      </trkpt>
      <trkpt lat="41.06245" lon="19.87684">
        <ele>100.389656</ele>
        <time>2022-05-03T08:55:24.617Z</time>
      </trkpt>
      <trkpt lat="41.06252" lon="19.87352">
        <ele>95.400184</ele>
        <time>2022-05-03T08:56:04.602Z</time>
      </trkpt>
      <trkpt lat="41.06216" lon="19.87073">
        <ele>96.312301</ele>
        <time>2022-05-03T08:56:46.619Z</time>
      </trkpt>
      <trkpt lat="41.06171" lon="19.86787">
        <ele>98.579674</ele>
        <time>2022-05-03T08:57:41.617Z</time>
      </trkpt>
      <trkpt lat="41.06108" lon="19.86488">
        <ele>97.680451</ele>
        <time>2022-05-03T08:58:41.621Z</time>
      </trkpt>
      <trkpt lat="41.06069" lon="19.86194">
        <ele>99.244127</ele>
        <time>2022-05-03T08:59:35.609Z</time>
      </trkpt>
      <trkpt lat="41.05995" lon="19.85927">
        <ele>97.168737</ele>
        <time>2022-05-03T09:00:24.612Z</time>
      </trkpt>
      <trkpt lat="41.05856" lon="19.85675">
        <ele>93.67434</ele>
        <time>2022-05-03T09:01:06.625Z</time>
      </trkpt>
      <trkpt lat="41.05756" lon="19.85429">
        <ele>93.410779</ele>
        <time>2022-05-03T09:01:58.658Z</time>
      </trkpt>
      <trkpt lat="41.05752" lon="19.85175">
        <ele>104.321699</ele>
        <time>2022-05-03T09:02:58.586Z</time>
      </trkpt>
      <trkpt lat="41.05779" lon="19.84879">
        <ele>102.314096</ele>
        <time>2022-05-03T09:03:58.604Z</time>
      </trkpt>
      <trkpt lat="41.05669" lon="19.84612">
        <ele>99.39089</ele>
        <time>2022-05-03T09:04:58.604Z</time>
      </trkpt>
      <trkpt lat="41.05584" lon="19.84337">
        <ele>101.019633</ele>
        <time>2022-05-03T09:05:58.609Z</time>
      </trkpt>
      <trkpt lat="41.05535" lon="19.84033">
        <ele>104.392093</ele>
        <time>2022-05-03T09:06:58.606Z</time>
      </trkpt>
      <trkpt lat="41.05491" lon="19.83733">
        <ele>108.924203</ele>
        <time>2022-05-03T09:07:58.593Z</time>
      </trkpt>
      <trkpt lat="41.05357" lon="19.83528">
        <ele>107.54585</ele>
        <time>2022-05-03T09:08:59.606Z</time>
      </trkpt>
      <trkpt lat="41.05233" lon="19.83313">
        <ele>101.527374</ele>
        <time>2022-05-03T09:09:42.613Z</time>
      </trkpt>
      <trkpt lat="41.05172" lon="19.83029">
        <ele>98.905571</ele>
        <time>2022-05-03T09:10:22.691Z</time>
      </trkpt>
      <trkpt lat="41.0508" lon="19.82757">
        <ele>97.58833</ele>
        <time>2022-05-03T09:11:00.596Z</time>
      </trkpt>
      <trkpt lat="41.05044" lon="19.82465">
        <ele>98.196537</ele>
        <time>2022-05-03T09:11:46.597Z</time>
      </trkpt>
      <trkpt lat="41.04969" lon="19.82219">
        <ele>97.759168</ele>
        <time>2022-05-03T09:12:32.621Z</time>
      </trkpt>
      <trkpt lat="41.04812" lon="19.82026">
        <ele>94.004488</ele>
        <time>2022-05-03T09:13:12.643Z</time>
      </trkpt>
      <trkpt lat="41.04691" lon="19.81806">
        <ele>93.713786</ele>
        <time>2022-05-03T09:13:52.628Z</time>
      </trkpt>
      <trkpt lat="41.04589" lon="19.81575">
        <ele>92.737511</ele>
        <time>2022-05-03T09:14:32.618Z</time>
      </trkpt>
      <trkpt lat="41.04489" lon="19.81334">
        <ele>90.676857</ele>
        <time>2022-05-03T09:15:12.657Z</time>
      </trkpt>
      <trkpt lat="41.04363" lon="19.81026">
        <ele>86.165133</ele>
        <time>2022-05-03T09:15:52.613Z</time>
      </trkpt>
      <trkpt lat="41.04337" lon="19.80755">
        <ele>87.456335</ele>
        <time>2022-05-03T09:16:34.649Z</time>
      </trkpt>
      <trkpt lat="41.04369" lon="19.80449">
        <ele>88.742591</ele>
        <time>2022-05-03T09:17:27.624Z</time>
      </trkpt>
      <trkpt lat="41.04386" lon="19.80147">
        <ele>91.80994</ele>
        <time>2022-05-03T09:18:27.659Z</time>
      </trkpt>
      <trkpt lat="41.04386" lon="19.79842">
        <ele>93.256495</ele>
        <time>2022-05-03T09:19:27.632Z</time>
      </trkpt>
      <trkpt lat="41.0442" lon="19.79552">
        <ele>91.051246</ele>
        <time>2022-05-03T09:20:22.614Z</time>
      </trkpt>
      <trkpt lat="41.04449" lon="19.79245">
        <ele>88.617686</ele>
        <time>2022-05-03T09:21:02.657Z</time>
      </trkpt>
      <trkpt lat="41.04434" lon="19.78985">
        <ele>87.412364</ele>
        <time>2022-05-03T09:21:44.617Z</time>
      </trkpt>
      <trkpt lat="41.04417" lon="19.78707">
        <ele>86.999579</ele>
        <time>2022-05-03T09:22:24.621Z</time>
      </trkpt>
      <trkpt lat="41.04388" lon="19.7842">
        <ele>85.070525</ele>
        <time>2022-05-03T09:23:04.666Z</time>
      </trkpt>
      <trkpt lat="41.04348" lon="19.78103">
        <ele>81.563565</ele>
        <time>2022-05-03T09:23:44.596Z</time>
      </trkpt>
      <trkpt lat="41.04292" lon="19.77792">
        <ele>78.29438</ele>
        <time>2022-05-03T09:24:24.623Z</time>
      </trkpt>
      <trkpt lat="41.04227" lon="19.77514">
        <ele>77.135177</ele>
        <time>2022-05-03T09:25:06.673Z</time>
      </trkpt>
      <trkpt lat="41.04177" lon="19.77257">
        <ele>77.007332</ele>
        <time>2022-05-03T09:25:47.616Z</time>
      </trkpt>
      <trkpt lat="41.04164" lon="19.76962">
        <ele>78.540168</ele>
        <time>2022-05-03T09:26:35.629Z</time>
      </trkpt>
      <trkpt lat="41.04061" lon="19.767">
        <ele>78.047104</ele>
        <time>2022-05-03T09:27:29.657Z</time>
      </trkpt>
      <trkpt lat="41.0418" lon="19.76413">
        <ele>74.077591</ele>
        <time>2022-05-03T09:28:09.613Z</time>
      </trkpt>
      <trkpt lat="41.0428" lon="19.76148">
        <ele>79.002519</ele>
        <time>2022-05-03T09:29:03.638Z</time>
      </trkpt>
      <trkpt lat="41.04439" lon="19.75996">
        <ele>83.843908</ele>
        <time>2022-05-03T09:30:32.638Z</time>
      </trkpt>
      <trkpt lat="41.04542" lon="19.75703">
        <ele>83.832175</ele>
        <time>2022-05-03T09:31:27.615Z</time>
      </trkpt>
      <trkpt lat="41.04619" lon="19.75411">
        <ele>93.369335</ele>
        <time>2022-05-03T09:32:43.624Z</time>
      </trkpt>
      <trkpt lat="41.04571" lon="19.75115">
        <ele>103.761178</ele>
        <time>2022-05-03T10:04:44.655Z</time>
      </trkpt>
      <trkpt lat="41.04629" lon="19.74833">
        <ele>97.584005</ele>
        <time>2022-05-03T10:05:41.623Z</time>
      </trkpt>
      <trkpt lat="41.04703" lon="19.7455">
        <ele>76.318936</ele>
        <time>2022-05-03T10:06:34.663Z</time>
      </trkpt>
      <trkpt lat="41.04707" lon="19.74258">
        <ele>73.603516</ele>
        <time>2022-05-03T10:07:36.614Z</time>
      </trkpt>
      <trkpt lat="41.04776" lon="19.7397">
        <ele>69.661373</ele>
        <time>2022-05-03T10:08:36.615Z</time>
      </trkpt>
      <trkpt lat="41.04826" lon="19.73686">
        <ele>70.198731</ele>
        <time>2022-05-03T10:09:25.619Z</time>
      </trkpt>
      <trkpt lat="41.04955" lon="19.73445">
        <ele>72.448438</ele>
        <time>2022-05-03T10:10:22.624Z</time>
      </trkpt>
      <trkpt lat="41.05039" lon="19.73174">
        <ele>72.495021</ele>
        <time>2022-05-03T10:11:13.627Z</time>
      </trkpt>
      <trkpt lat="41.05086" lon="19.72884">
        <ele>71.453374</ele>
        <time>2022-05-03T10:12:03.647Z</time>
      </trkpt>
      <trkpt lat="41.05177" lon="19.72621">
        <ele>67.303577</ele>
        <time>2022-05-03T10:12:43.611Z</time>
      </trkpt>
      <trkpt lat="41.05271" lon="19.7235">
        <ele>63.93153</ele>
        <time>2022-05-03T10:13:23.675Z</time>
      </trkpt>
      <trkpt lat="41.05314" lon="19.72078">
        <ele>64.91128</ele>
        <time>2022-05-03T10:14:03.631Z</time>
      </trkpt>
      <trkpt lat="41.0545" lon="19.71845">
        <ele>66.461739</ele>
        <time>2022-05-03T10:14:43.639Z</time>
      </trkpt>
      <trkpt lat="41.05586" lon="19.71595">
        <ele>63.570256</ele>
        <time>2022-05-03T10:15:27.658Z</time>
      </trkpt>
      <trkpt lat="41.0572" lon="19.71396">
        <ele>63.513334</ele>
        <time>2022-05-03T10:16:05.616Z</time>
      </trkpt>
      <trkpt lat="41.05847" lon="19.71173">
        <ele>64.164129</ele>
        <time>2022-05-03T10:16:45.605Z</time>
      </trkpt>
      <trkpt lat="41.05886" lon="19.709">
        <ele>67.283337</ele>
        <time>2022-05-03T10:17:31.654Z</time>
      </trkpt>
      <trkpt lat="41.05924" lon="19.7062">
        <ele>68.761844</ele>
        <time>2022-05-03T10:18:20.635Z</time>
      </trkpt>
      <trkpt lat="41.05962" lon="19.70355">
        <ele>66.911939</ele>
        <time>2022-05-03T10:19:00.626Z</time>
      </trkpt>
      <trkpt lat="41.06007" lon="19.70035">
        <ele>61.782756</ele>
        <time>2022-05-03T10:19:40.624Z</time>
      </trkpt>
      <trkpt lat="41.06079" lon="19.69693">
        <ele>57.092559</ele>
        <time>2022-05-03T10:20:20.630Z</time>
      </trkpt>
      <trkpt lat="41.06156" lon="19.69462">
        <ele>55.38756</ele>
        <time>2022-05-03T10:21:00.625Z</time>
      </trkpt>
      <trkpt lat="41.06254" lon="19.69222">
        <ele>58.462057</ele>
        <time>2022-05-03T10:21:41.626Z</time>
      </trkpt>
      <trkpt lat="41.06366" lon="19.68959">
        <ele>58.128093</ele>
        <time>2022-05-03T10:22:21.617Z</time>
      </trkpt>
      <trkpt lat="41.06479" lon="19.68698">
        <ele>58.515694</ele>
        <time>2022-05-03T10:23:01.614Z</time>
      </trkpt>
      <trkpt lat="41.06589" lon="19.6844">
        <ele>55.453728</ele>
        <time>2022-05-03T10:23:41.616Z</time>
      </trkpt>
      <trkpt lat="41.06696" lon="19.68183">
        <ele>53.894926</ele>
        <time>2022-05-03T10:24:21.626Z</time>
      </trkpt>
      <trkpt lat="41.06835" lon="19.67984">
        <ele>54.918995</ele>
        <time>2022-05-03T10:25:01.609Z</time>
      </trkpt>
      <trkpt lat="41.06976" lon="19.67763">
        <ele>56.586578</ele>
        <time>2022-05-03T10:25:41.615Z</time>
      </trkpt>
      <trkpt lat="41.07125" lon="19.67538">
        <ele>58.41435</ele>
        <time>2022-05-03T10:26:34.634Z</time>
      </trkpt>
      <trkpt lat="41.07278" lon="19.67338">
        <ele>61.553095</ele>
        <time>2022-05-03T10:27:27.627Z</time>
      </trkpt>
      <trkpt lat="41.07374" lon="19.67093">
        <ele>63.465701</ele>
        <time>2022-05-03T10:28:12.613Z</time>
      </trkpt>
      <trkpt lat="41.07476" lon="19.66829">
        <ele>67.657895</ele>
        <time>2022-05-03T10:28:53.621Z</time>
      </trkpt>
      <trkpt lat="41.07567" lon="19.6658">
        <ele>69.239906</ele>
        <time>2022-05-03T10:29:52.622Z</time>
      </trkpt>
      <trkpt lat="41.07663" lon="19.66332">
        <ele>66.033278</ele>
        <time>2022-05-03T10:30:45.603Z</time>
      </trkpt>
      <trkpt lat="41.0776" lon="19.66096">
        <ele>62.234378</ele>
        <time>2022-05-03T10:31:28.625Z</time>
      </trkpt>
      <trkpt lat="41.0786" lon="19.65823">
        <ele>61.469648</ele>
        <time>2022-05-03T10:32:23.630Z</time>
      </trkpt>
      <trkpt lat="41.07922" lon="19.6553">
        <ele>61.133249</ele>
        <time>2022-05-03T10:33:16.625Z</time>
      </trkpt>
      <trkpt lat="41.07891" lon="19.65228">
        <ele>62.487568</ele>
        <time>2022-05-03T10:34:15.630Z</time>
      </trkpt>
      <trkpt lat="41.07844" lon="19.64947">
        <ele>59.259954</ele>
        <time>2022-05-03T10:34:58.630Z</time>
      </trkpt>
      <trkpt lat="41.07774" lon="19.6466">
        <ele>56.987859</ele>
        <time>2022-05-03T10:35:44.627Z</time>
      </trkpt>
      <trkpt lat="41.0765" lon="19.64449">
        <ele>58.920579</ele>
        <time>2022-05-03T10:36:28.625Z</time>
      </trkpt>
      <trkpt lat="41.07538" lon="19.64214">
        <ele>60.157232</ele>
        <time>2022-05-03T10:37:08.637Z</time>
      </trkpt>
      <trkpt lat="41.07435" lon="19.63945">
        <ele>55.63983</ele>
        <time>2022-05-03T10:37:48.619Z</time>
      </trkpt>
      <trkpt lat="41.07325" lon="19.63701">
        <ele>55.060712</ele>
        <time>2022-05-03T10:38:42.653Z</time>
      </trkpt>
      <trkpt lat="41.07197" lon="19.63597">
        <ele>53.562155</ele>
        <time>2022-05-03T10:39:34.615Z</time>
      </trkpt>
      <trkpt lat="41.07317" lon="19.63369">
        <ele>50.558352</ele>
        <time>2022-05-03T10:40:26.628Z</time>
      </trkpt>
      <trkpt lat="41.07439" lon="19.63112">
        <ele>52.013183</ele>
        <time>2022-05-03T10:41:18.665Z</time>
      </trkpt>
      <trkpt lat="41.0757" lon="19.6287">
        <ele>53.572282</ele>
        <time>2022-05-03T10:42:18.627Z</time>
      </trkpt>
      <trkpt lat="41.07701" lon="19.62665">
        <ele>52.497491</ele>
        <time>2022-05-03T10:43:03.666Z</time>
      </trkpt>
      <trkpt lat="41.07871" lon="19.62513">
        <ele>52.7205</ele>
        <time>2022-05-03T10:43:48.641Z</time>
      </trkpt>
      <trkpt lat="41.0803" lon="19.62318">
        <ele>51.483233</ele>
        <time>2022-05-03T10:44:32.663Z</time>
      </trkpt>
      <trkpt lat="41.08205" lon="19.62089">
        <ele>47.603059</ele>
        <time>2022-05-03T10:45:12.626Z</time>
      </trkpt>
      <trkpt lat="41.08366" lon="19.61881">
        <ele>46.991384</ele>
        <time>2022-05-03T10:45:55.628Z</time>
      </trkpt>
      <trkpt lat="41.08512" lon="19.61666">
        <ele>48.297088</ele>
        <time>2022-05-03T10:46:35.683Z</time>
      </trkpt>
      <trkpt lat="41.08653" lon="19.61454">
        <ele>49.165574</ele>
        <time>2022-05-03T10:47:15.664Z</time>
      </trkpt>
      <trkpt lat="41.08791" lon="19.61243">
        <ele>50.009892</ele>
        <time>2022-05-03T10:47:59.645Z</time>
      </trkpt>
      <trkpt lat="41.08888" lon="19.61062">
        <ele>53.615791</ele>
        <time>2022-05-03T10:48:49.631Z</time>
      </trkpt>
      <trkpt lat="41.08882" lon="19.61278">
        <ele>55.091605</ele>
        <time>2022-05-03T10:49:58.628Z</time>
      </trkpt>
      <trkpt lat="41.09003" lon="19.61502">
        <ele>61.2094</ele>
        <time>2022-05-03T10:51:03.632Z</time>
      </trkpt>
      <trkpt lat="41.09192" lon="19.61371">
        <ele>59.563671</ele>
        <time>2022-05-03T10:51:52.631Z</time>
      </trkpt>
      <trkpt lat="41.09392" lon="19.61235">
        <ele>55.223997</ele>
        <time>2022-05-03T10:52:34.624Z</time>
      </trkpt>
      <trkpt lat="41.0958" lon="19.61148">
        <ele>56.420337</ele>
        <time>2022-05-03T10:53:16.628Z</time>
      </trkpt>
      <trkpt lat="41.09765" lon="19.61065">
        <ele>55.566672</ele>
        <time>2022-05-03T10:53:58.620Z</time>
      </trkpt>
      <trkpt lat="41.1001" lon="19.60958">
        <ele>57.675482</ele>
        <time>2022-05-03T10:54:58.616Z</time>
      </trkpt>
      <trkpt lat="41.10239" lon="19.60925">
        <ele>59.332184</ele>
        <time>2022-05-03T10:55:44.627Z</time>
      </trkpt>
      <trkpt lat="41.10482" lon="19.60899">
        <ele>56.048032</ele>
        <time>2022-05-03T10:56:24.627Z</time>
      </trkpt>
      <trkpt lat="41.1067" lon="19.60847">
        <ele>57.807211</ele>
        <time>2022-05-03T10:57:04.618Z</time>
      </trkpt>
      <trkpt lat="41.10884" lon="19.60756">
        <ele>63.72922</ele>
        <time>2022-05-03T10:58:01.640Z</time>
      </trkpt>
      <trkpt lat="41.11095" lon="19.60663">
        <ele>65.831273</ele>
        <time>2022-05-03T10:59:01.632Z</time>
      </trkpt>
      <trkpt lat="41.11289" lon="19.60577">
        <ele>63.968904</ele>
        <time>2022-05-03T10:59:46.624Z</time>
      </trkpt>
      <trkpt lat="41.11486" lon="19.6049">
        <ele>61.684889</ele>
        <time>2022-05-03T11:00:28.617Z</time>
      </trkpt>
      <trkpt lat="41.11696" lon="19.60403">
        <ele>61.857683</ele>
        <time>2022-05-03T11:01:08.623Z</time>
      </trkpt>
      <trkpt lat="41.11893" lon="19.60316">
        <ele>63.209557</ele>
        <time>2022-05-03T11:01:48.625Z</time>
      </trkpt>
      <trkpt lat="41.12074" lon="19.60205">
        <ele>63.86915</ele>
        <time>2022-05-03T11:02:30.628Z</time>
      </trkpt>
      <trkpt lat="41.123" lon="19.60093">
        <ele>61.417973</ele>
        <time>2022-05-03T11:03:10.652Z</time>
      </trkpt>
      <trkpt lat="41.12496" lon="19.59995">
        <ele>61.185925</ele>
        <time>2022-05-03T11:03:53.632Z</time>
      </trkpt>
      <trkpt lat="41.12691" lon="19.599">
        <ele>62.105645</ele>
        <time>2022-05-03T11:04:37.630Z</time>
      </trkpt>
      <trkpt lat="41.12868" lon="19.59817">
        <ele>64.146752</ele>
        <time>2022-05-03T11:05:15.643Z</time>
      </trkpt>
      <trkpt lat="41.13053" lon="19.59723">
        <ele>64.266344</ele>
        <time>2022-05-03T11:05:55.621Z</time>
      </trkpt>
      <trkpt lat="41.13266" lon="19.59625">
        <ele>67.822158</ele>
        <time>2022-05-03T11:06:46.618Z</time>
      </trkpt>
      <trkpt lat="41.13397" lon="19.59736">
        <ele>69.044706</ele>
        <time>2022-05-03T11:07:51.620Z</time>
      </trkpt>
      <trkpt lat="41.13456" lon="19.59536">
        <ele>64.566341</ele>
        <time>2022-05-03T11:08:50.633Z</time>
      </trkpt>
      <trkpt lat="41.13662" lon="19.59439">
        <ele>69.859361</ele>
        <time>2022-05-03T11:09:54.636Z</time>
      </trkpt>
      <trkpt lat="41.13868" lon="19.59341">
        <ele>68.517923</ele>
        <time>2022-05-03T11:10:55.628Z</time>
      </trkpt>
      <trkpt lat="41.14082" lon="19.59239">
        <ele>68.902169</ele>
        <time>2022-05-03T11:11:53.620Z</time>
      </trkpt>
      <trkpt lat="41.14301" lon="19.59134">
        <ele>67.905465</ele>
        <time>2022-05-03T11:12:53.644Z</time>
      </trkpt>
      <trkpt lat="41.14506" lon="19.59073">
        <ele>74.517194</ele>
        <time>2022-05-03T11:13:58.612Z</time>
      </trkpt>
      <trkpt lat="41.14696" lon="19.58943">
        <ele>70.429108</ele>
        <time>2022-05-03T11:14:43.626Z</time>
      </trkpt>
      <trkpt lat="41.14898" lon="19.58812">
        <ele>65.246538</ele>
        <time>2022-05-03T11:15:23.620Z</time>
      </trkpt>
      <trkpt lat="41.15043" lon="19.58603">
        <ele>67.413906</ele>
        <time>2022-05-03T11:16:10.628Z</time>
      </trkpt>
      <trkpt lat="41.15223" lon="19.58477">
        <ele>64.075204</ele>
        <time>2022-05-03T11:16:52.629Z</time>
      </trkpt>
      <trkpt lat="41.15403" lon="19.58353">
        <ele>62.218389</ele>
        <time>2022-05-03T11:17:32.651Z</time>
      </trkpt>
      <trkpt lat="41.15577" lon="19.58224">
        <ele>65.186695</ele>
        <time>2022-05-03T11:18:13.686Z</time>
      </trkpt>
      <trkpt lat="41.15763" lon="19.58092">
        <ele>68.356794</ele>
        <time>2022-05-03T11:18:53.635Z</time>
      </trkpt>
      <trkpt lat="41.15957" lon="19.57951">
        <ele>66.870245</ele>
        <time>2022-05-03T11:19:33.621Z</time>
      </trkpt>
      <trkpt lat="41.16155" lon="19.57804">
        <ele>65.977897</ele>
        <time>2022-05-03T11:20:13.625Z</time>
      </trkpt>
      <trkpt lat="41.16344" lon="19.57668">
        <ele>63.238791</ele>
        <time>2022-05-03T11:20:53.626Z</time>
      </trkpt>
      <trkpt lat="41.16551" lon="19.57515">
        <ele>61.386764</ele>
        <time>2022-05-03T11:21:33.636Z</time>
      </trkpt>
      <trkpt lat="41.16723" lon="19.57397">
        <ele>59.651762</ele>
        <time>2022-05-03T11:22:11.637Z</time>
      </trkpt>
      <trkpt lat="41.16916" lon="19.57261">
        <ele>60.642023</ele>
        <time>2022-05-03T11:22:51.631Z</time>
      </trkpt>
      <trkpt lat="41.1712" lon="19.57115">
        <ele>58.794975</ele>
        <time>2022-05-03T11:23:31.628Z</time>
      </trkpt>
      <trkpt lat="41.17314" lon="19.56968">
        <ele>56.262967</ele>
        <time>2022-05-03T11:24:11.645Z</time>
      </trkpt>
      <trkpt lat="41.17434" lon="19.56761">
        <ele>59.670815</ele>
        <time>2022-05-03T11:24:52.791Z</time>
      </trkpt>
      <trkpt lat="41.17395" lon="19.56912">
        <ele>65.97661</ele>
        <time>2022-05-03T11:25:53.638Z</time>
      </trkpt>
      <trkpt lat="41.17581" lon="19.56775">
        <ele>70.829951</ele>
        <time>2022-05-03T11:26:40.619Z</time>
      </trkpt>
      <trkpt lat="41.17766" lon="19.56633">
        <ele>72.425918</ele>
        <time>2022-05-03T11:27:25.611Z</time>
      </trkpt>
      <trkpt lat="41.17951" lon="19.56501">
        <ele>65.893992</ele>
        <time>2022-05-03T11:28:07.613Z</time>
      </trkpt>
      <trkpt lat="41.18138" lon="19.56368">
        <ele>74.895086</ele>
        <time>2022-05-03T11:28:53.627Z</time>
      </trkpt>
      <trkpt lat="41.18322" lon="19.56227">
        <ele>78.300034</ele>
        <time>2022-05-03T11:29:38.626Z</time>
      </trkpt>
      <trkpt lat="41.18506" lon="19.56071">
        <ele>75.208879</ele>
        <time>2022-05-03T11:30:38.628Z</time>
      </trkpt>
      <trkpt lat="41.18698" lon="19.55871">
        <ele>82.537751</ele>
        <time>2022-05-03T11:31:38.625Z</time>
      </trkpt>
      <trkpt lat="41.18859" lon="19.55705">
        <ele>76.248457</ele>
        <time>2022-05-03T11:32:19.653Z</time>
      </trkpt>
      <trkpt lat="41.19014" lon="19.55536">
        <ele>77.482708</ele>
        <time>2022-05-03T11:33:00.617Z</time>
      </trkpt>
      <trkpt lat="41.19183" lon="19.55375">
        <ele>76.729691</ele>
        <time>2022-05-03T11:33:40.622Z</time>
      </trkpt>
      <trkpt lat="41.19349" lon="19.5522">
        <ele>66.320754</ele>
        <time>2022-05-03T11:34:21.650Z</time>
      </trkpt>
      <trkpt lat="41.19513" lon="19.55041">
        <ele>62.840779</ele>
        <time>2022-05-03T11:35:06.635Z</time>
      </trkpt>
      <trkpt lat="41.19636" lon="19.54854">
        <ele>64.816782</ele>
        <time>2022-05-03T12:28:10.679Z</time>
      </trkpt>
      <trkpt lat="41.19768" lon="19.54633">
        <ele>61.252299</ele>
        <time>2022-05-03T12:28:53.636Z</time>
      </trkpt>
      <trkpt lat="41.19892" lon="19.54427">
        <ele>59.703153</ele>
        <time>2022-05-03T12:29:33.615Z</time>
      </trkpt>
      <trkpt lat="41.20014" lon="19.54228">
        <ele>55.739173</ele>
        <time>2022-05-03T12:30:11.635Z</time>
      </trkpt>
      <trkpt lat="41.20149" lon="19.54011">
        <ele>51.548092</ele>
        <time>2022-05-03T12:30:57.610Z</time>
      </trkpt>
      <trkpt lat="41.20275" lon="19.538">
        <ele>50.357709</ele>
        <time>2022-05-03T12:31:37.638Z</time>
      </trkpt>
      <trkpt lat="41.20404" lon="19.53592">
        <ele>52.260837</ele>
        <time>2022-05-03T12:32:19.650Z</time>
      </trkpt>
      <trkpt lat="41.20596" lon="19.53513">
        <ele>52.777838</ele>
        <time>2022-05-03T12:33:07.624Z</time>
      </trkpt>
      <trkpt lat="41.20575" lon="19.53312">
        <ele>53.993197</ele>
        <time>2022-05-03T12:34:12.633Z</time>
      </trkpt>
      <trkpt lat="41.2074" lon="19.53401">
        <ele>48.734921</ele>
        <time>2022-05-03T12:34:52.651Z</time>
      </trkpt>
      <trkpt lat="41.20937" lon="19.53339">
        <ele>47.314183</ele>
        <time>2022-05-03T12:35:32.632Z</time>
      </trkpt>
      <trkpt lat="41.2114" lon="19.53254">
        <ele>46.634137</ele>
        <time>2022-05-03T12:36:12.652Z</time>
      </trkpt>
      <trkpt lat="41.21337" lon="19.53172">
        <ele>47.823725</ele>
        <time>2022-05-03T12:36:52.627Z</time>
      </trkpt>
      <trkpt lat="41.21481" lon="19.53008">
        <ele>48.098458</ele>
        <time>2022-05-03T12:37:44.624Z</time>
      </trkpt>
      <trkpt lat="41.21667" lon="19.52855">
        <ele>48.01237</ele>
        <time>2022-05-03T12:38:37.680Z</time>
      </trkpt>
      <trkpt lat="41.21845" lon="19.52707">
        <ele>49.128731</ele>
        <time>2022-05-03T12:39:26.631Z</time>
      </trkpt>
      <trkpt lat="41.22018" lon="19.52559">
        <ele>48.029125</ele>
        <time>2022-05-03T12:40:11.628Z</time>
      </trkpt>
      <trkpt lat="41.22211" lon="19.52415">
        <ele>47.421062</ele>
        <time>2022-05-03T12:41:04.636Z</time>
      </trkpt>
      <trkpt lat="41.22398" lon="19.52298">
        <ele>45.98654</ele>
        <time>2022-05-03T12:41:49.638Z</time>
      </trkpt>
      <trkpt lat="41.2251" lon="19.52123">
        <ele>46.228323</ele>
        <time>2022-05-03T12:42:41.636Z</time>
      </trkpt>
      <trkpt lat="41.22596" lon="19.51883">
        <ele>44.803397</ele>
        <time>2022-05-03T12:43:33.647Z</time>
      </trkpt>
      <trkpt lat="41.22796" lon="19.51869">
        <ele>46.489617</ele>
        <time>2022-05-03T12:44:31.636Z</time>
      </trkpt>
      <trkpt lat="41.2301" lon="19.51977">
        <ele>50.66698</ele>
        <time>2022-05-03T12:45:22.643Z</time>
      </trkpt>
      <trkpt lat="41.23179" lon="19.519">
        <ele>43.400929</ele>
        <time>2022-05-03T12:46:18.642Z</time>
      </trkpt>
      <trkpt lat="41.23114" lon="19.51656">
        <ele>42.715257</ele>
        <time>2022-05-03T12:47:19.640Z</time>
      </trkpt>
      <trkpt lat="41.23181" lon="19.51932">
        <ele>41.263433</ele>
        <time>2022-05-03T12:48:10.632Z</time>
      </trkpt>
      <trkpt lat="41.23254" lon="19.51753">
        <ele>47.874977</ele>
        <time>2022-05-03T12:49:07.637Z</time>
      </trkpt>
      <trkpt lat="41.23386" lon="19.51698">
        <ele>56.997123</ele>
        <time>2022-05-03T12:50:18.636Z</time>
      </trkpt>
      <trkpt lat="41.23561" lon="19.5166">
        <ele>62.167506</ele>
        <time>2022-05-03T12:51:32.626Z</time>
      </trkpt>
      <trkpt lat="41.23769" lon="19.51741">
        <ele>59.397641</ele>
        <time>2022-05-03T12:52:23.675Z</time>
      </trkpt>
      <trkpt lat="41.23983" lon="19.51778">
        <ele>56.304491</ele>
        <time>2022-05-03T12:53:10.615Z</time>
      </trkpt>
      <trkpt lat="41.24208" lon="19.51841">
        <ele>57.490974</ele>
        <time>2022-05-03T12:54:02.645Z</time>
      </trkpt>
      <trkpt lat="41.2442" lon="19.51905">
        <ele>45.933695</ele>
        <time>2022-05-03T12:54:46.637Z</time>
      </trkpt>
      <trkpt lat="41.24618" lon="19.51955">
        <ele>40.027401</ele>
        <time>2022-05-03T12:55:26.685Z</time>
      </trkpt>
      <trkpt lat="41.24786" lon="19.52072">
        <ele>40.935353</ele>
        <time>2022-05-03T12:56:08.641Z</time>
      </trkpt>
      <trkpt lat="41.24979" lon="19.52076">
        <ele>44.643527</ele>
        <time>2022-05-03T12:56:48.647Z</time>
      </trkpt>
      <trkpt lat="41.25202" lon="19.52096">
        <ele>52.616141</ele>
        <time>2022-05-03T12:57:41.640Z</time>
      </trkpt>
      <trkpt lat="41.25436" lon="19.52088">
        <ele>54.188333</ele>
        <time>2022-05-03T12:58:43.622Z</time>
      </trkpt>
      <trkpt lat="41.25647" lon="19.52053">
        <ele>50.388792</ele>
        <time>2022-05-03T12:59:45.639Z</time>
      </trkpt>
      <trkpt lat="41.25847" lon="19.52081">
        <ele>47.0423</ele>
        <time>2022-05-03T13:01:04.649Z</time>
      </trkpt>
      <trkpt lat="41.26002" lon="19.52159">
        <ele>51.110735</ele>
        <time>2022-05-03T13:02:28.633Z</time>
      </trkpt>
      <trkpt lat="41.26039" lon="19.52431">
        <ele>47.610731</ele>
        <time>2022-05-03T13:03:30.672Z</time>
      </trkpt>
      <trkpt lat="41.26179" lon="19.52485">
        <ele>46.007444</ele>
        <time>2022-05-03T13:05:09.635Z</time>
      </trkpt>
      <trkpt lat="41.26385" lon="19.52419">
        <ele>52.464078</ele>
        <time>2022-05-03T13:06:05.635Z</time>
      </trkpt>
      <trkpt lat="41.2658" lon="19.52287">
        <ele>49.37125</ele>
        <time>2022-05-03T13:06:53.642Z</time>
      </trkpt>
      <trkpt lat="41.2676" lon="19.52123">
        <ele>75.549784</ele>
        <time>2022-05-03T13:07:51.622Z</time>
      </trkpt>
      <trkpt lat="41.26948" lon="19.51979">
        <ele>84.292517</ele>
        <time>2022-05-03T13:08:44.641Z</time>
      </trkpt>
      <trkpt lat="41.27138" lon="19.51813">
        <ele>76.228652</ele>
        <time>2022-05-03T13:09:34.638Z</time>
      </trkpt>
      <trkpt lat="41.27329" lon="19.51705">
        <ele>56.180459</ele>
        <time>2022-05-03T13:10:19.643Z</time>
      </trkpt>
      <trkpt lat="41.2754" lon="19.5162">
        <ele>55.71021</ele>
        <time>2022-05-03T13:11:04.639Z</time>
      </trkpt>
      <trkpt lat="41.27736" lon="19.51532">
        <ele>64.422445</ele>
        <time>2022-05-03T13:11:46.677Z</time>
      </trkpt>
      <trkpt lat="41.27951" lon="19.51432">
        <ele>66.095547</ele>
        <time>2022-05-03T13:12:34.635Z</time>
      </trkpt>
      <trkpt lat="41.2816" lon="19.51427">
        <ele>57.510672</ele>
        <time>2022-05-03T13:13:14.639Z</time>
      </trkpt>
      <trkpt lat="41.2837" lon="19.51428">
        <ele>49.233535</ele>
        <time>2022-05-03T13:13:54.636Z</time>
      </trkpt>
      <trkpt lat="41.28571" lon="19.51375">
        <ele>47.436199</ele>
        <time>2022-05-03T13:14:34.640Z</time>
      </trkpt>
      <trkpt lat="41.28761" lon="19.51328">
        <ele>46.740386</ele>
        <time>2022-05-03T13:15:14.642Z</time>
      </trkpt>
      <trkpt lat="41.28961" lon="19.51229">
        <ele>42.245341</ele>
        <time>2022-05-03T13:15:54.644Z</time>
      </trkpt>
      <trkpt lat="41.291" lon="19.51032">
        <ele>44.528818</ele>
        <time>2022-05-03T13:16:34.626Z</time>
      </trkpt>
      <trkpt lat="41.29229" lon="19.50843">
        <ele>42.141212</ele>
        <time>2022-05-03T13:17:16.640Z</time>
      </trkpt>
      <trkpt lat="41.29391" lon="19.50685">
        <ele>45.138989</ele>
        <time>2022-05-03T13:17:58.641Z</time>
      </trkpt>
      <trkpt lat="41.29577" lon="19.5059">
        <ele>50.231256</ele>
        <time>2022-05-03T13:18:38.632Z</time>
      </trkpt>
      <trkpt lat="41.29762" lon="19.50453">
        <ele>40.980306</ele>
        <time>2022-05-03T13:19:18.626Z</time>
      </trkpt>
      <trkpt lat="41.29917" lon="19.50257">
        <ele>41.765982</ele>
        <time>2022-05-03T13:19:59.651Z</time>
      </trkpt>
      <trkpt lat="41.30049" lon="19.50056">
        <ele>54.306399</ele>
        <time>2022-05-03T13:20:42.670Z</time>
      </trkpt>
      <trkpt lat="41.30198" lon="19.49855">
        <ele>81.738987</ele>
        <time>2022-05-03T13:21:38.641Z</time>
      </trkpt>
      <trkpt lat="41.30344" lon="19.49639">
        <ele>78.671828</ele>
        <time>2022-05-03T13:22:30.625Z</time>
      </trkpt>
      <trkpt lat="41.3049" lon="19.49436">
        <ele>71.453458</ele>
        <time>2022-05-03T13:23:29.651Z</time>
      </trkpt>
      <trkpt lat="41.30652" lon="19.49232">
        <ele>68.304585</ele>
        <time>2022-05-03T13:24:31.652Z</time>
      </trkpt>
      <trkpt lat="41.30575" lon="19.491">
        <ele>58.202239</ele>
        <time>2022-05-03T13:25:42.631Z</time>
      </trkpt>
      <trkpt lat="41.30696" lon="19.48883">
        <ele>59.577203</ele>
        <time>2022-05-03T13:26:51.632Z</time>
      </trkpt>
      <trkpt lat="41.30843" lon="19.48671">
        <ele>66.616836</ele>
        <time>2022-05-03T13:27:52.639Z</time>
      </trkpt>
      <trkpt lat="41.30991" lon="19.48475">
        <ele>60.974807</ele>
        <time>2022-05-03T13:29:01.653Z</time>
      </trkpt>
      <trkpt lat="41.31125" lon="19.48248">
        <ele>60.153268</ele>
        <time>2022-05-03T13:30:04.623Z</time>
      </trkpt>
      <trkpt lat="41.31242" lon="19.47989">
        <ele>68.506918</ele>
        <time>2022-05-03T13:31:05.634Z</time>
      </trkpt>
      <trkpt lat="41.31368" lon="19.47739">
        <ele>70.056407</ele>
        <time>2022-05-03T13:32:01.639Z</time>
      </trkpt>
      <trkpt lat="41.31475" lon="19.4748">
        <ele>71.096279</ele>
        <time>2022-05-03T13:32:59.642Z</time>
      </trkpt>
      <trkpt lat="41.31492" lon="19.47267">
        <ele>67.613816</ele>
        <time>2022-05-03T13:34:32.639Z</time>
      </trkpt>
      <trkpt lat="41.31468" lon="19.47191">
        <ele>67.613816</ele>
        <time>2022-05-03T13:49:59.616Z</time>
      </trkpt>
    </trkseg>
  </trk>
</gpx>